2VA3 weather

Merlin Aerodrome
Amelia Court House, Virginia, United States

Public forecast

Using degrees Fahrenheit for public forecast. Weather courtesy of forecast.io.

Closest aviation weather report (METAR) to Merlin Aerodrome

Closest report is Crewe Municipal Airport, 13.7 nm (25.4 km) SW. Retrieved 2019/12/15 12:35 UTC (15 minutes ago):

KW81 151235Z AUTO 21003KT 10SM CLR 02/01 A2995 RMK AO1 T00170005

Closest aviation forecast (TAF) to Merlin Aerodrome

Closest forecast is Richmond International Airport, 28.5 nm (52.7 km) ENE. Retrieved 2019/12/15 12:30 UTC (20 minutes ago):

TAF KRIC 151127Z 1512/1612 23009KT P6SM SKC FM151500 25013G20KT P6SM SCT300 FM160000 VRB03KT P6SM SCT200 FM160600 07003KT P6SM BKN100